createdAt,value
2018-10-17T00:00:40.438Z,1005.48
2018-10-17T00:01:40.456Z,1005.48
2018-10-17T00:02:40.482Z,1005.45
2018-10-17T00:03:40.497Z,1005.43
2018-10-17T00:04:40.512Z,1005.47
2018-10-17T00:05:40.545Z,1005.47
2018-10-17T00:06:40.555Z,1005.45
2018-10-17T00:07:40.567Z,1005.46
2018-10-17T00:08:40.590Z,1005.48
2018-10-17T00:09:40.618Z,1005.46
2018-10-17T00:10:40.624Z,1005.44
2018-10-17T00:11:40.650Z,1005.45
2018-10-17T00:12:40.656Z,1005.48
2018-10-17T00:13:40.673Z,1005.45
2018-10-17T00:14:40.693Z,1005.49
2018-10-17T00:15:40.709Z,1005.47
2018-10-17T00:16:40.724Z,1005.47
2018-10-17T00:17:40.738Z,1005.45
2018-10-17T00:18:40.763Z,1005.48
2018-10-17T00:19:40.774Z,1005.47
2018-10-17T00:20:40.832Z,1005.48
2018-10-17T00:21:40.828Z,1005.48
2018-10-17T00:22:40.832Z,1005.46
2018-10-17T00:23:40.848Z,1005.47
2018-10-17T00:24:40.902Z,1005.51
2018-10-17T00:25:40.891Z,1005.49
2018-10-17T00:26:40.901Z,1005.53
2018-10-17T00:27:40.920Z,1005.50
2018-10-17T00:28:40.936Z,1005.50
2018-10-17T00:29:40.958Z,1005.52
2018-10-17T00:30:40.985Z,1005.47
2018-10-17T00:31:40.999Z,1005.50
2018-10-17T00:32:41.009Z,1005.49
2018-10-17T00:33:41.031Z,1005.47
2018-10-17T00:34:41.060Z,1005.48
2018-10-17T00:35:41.065Z,1005.47
2018-10-17T00:36:41.078Z,1005.44
2018-10-17T00:37:41.104Z,1005.47
2018-10-17T00:38:41.113Z,1005.49
2018-10-17T00:39:41.129Z,1005.43
2018-10-17T00:40:41.164Z,1005.45
2018-10-17T00:41:41.179Z,1005.41
2018-10-17T00:42:41.191Z,1005.42
2018-10-17T00:43:41.201Z,1005.43
2018-10-17T00:44:41.228Z,1005.40
2018-10-17T00:45:41.246Z,1005.38
2018-10-17T00:46:41.256Z,1005.37
2018-10-17T00:47:41.293Z,1005.35
2018-10-17T00:48:41.291Z,1005.35
2018-10-17T00:49:41.310Z,1005.34
2018-10-17T00:50:41.331Z,1005.35
2018-10-17T00:51:41.345Z,1005.35
2018-10-17T00:52:41.360Z,1005.37
2018-10-17T00:53:41.390Z,1005.37
2018-10-17T00:54:41.396Z,1005.36
2018-10-17T00:55:41.422Z,1005.37
2018-10-17T00:56:41.432Z,1005.35
2018-10-17T00:57:41.450Z,1005.35
2018-10-17T00:58:41.475Z,1005.33
2018-10-17T00:59:41.497Z,1005.32
2018-10-17T01:00:41.519Z,1005.37
2018-10-17T01:01:41.518Z,1005.33
2018-10-17T01:02:41.539Z,1005.36
2018-10-17T01:03:41.564Z,1005.35
2018-10-17T01:04:41.584Z,1005.38
2018-10-17T01:05:41.597Z,1005.37
2018-10-17T01:06:41.605Z,1005.35
2018-10-17T01:07:41.642Z,1005.38
2018-10-17T01:08:41.645Z,1005.37
2018-10-17T01:09:41.690Z,1005.40
2018-10-17T01:10:41.695Z,1005.37
2018-10-17T01:11:41.702Z,1005.38
2018-10-17T01:12:41.723Z,1005.34
2018-10-17T01:13:41.736Z,1005.37
2018-10-17T01:14:41.760Z,1005.35
2018-10-17T01:15:41.768Z,1005.33
2018-10-17T01:16:41.790Z,1005.31
2018-10-17T01:17:41.809Z,1005.28
2018-10-17T01:18:41.820Z,1005.28
2018-10-17T01:19:41.856Z,1005.26
2018-10-17T01:20:41.856Z,1005.28
2018-10-17T01:21:41.879Z,1005.26
2018-10-17T01:22:41.916Z,1005.27
2018-10-17T01:23:41.908Z,1005.35
2018-10-17T01:24:41.934Z,1005.34
2018-10-17T01:25:41.948Z,1005.33
2018-10-17T01:26:41.962Z,1005.32
2018-10-17T01:27:41.984Z,1005.29
2018-10-17T01:28:42.000Z,1005.31
2018-10-17T01:29:42.014Z,1005.29
2018-10-17T01:30:42.034Z,1005.29
2018-10-17T01:31:42.057Z,1005.32
2018-10-17T01:32:42.067Z,1005.29
2018-10-17T01:33:42.084Z,1005.33
2018-10-17T01:34:42.102Z,1005.29
2018-10-17T01:35:42.135Z,1005.32
2018-10-17T01:36:42.141Z,1005.29
2018-10-17T01:37:42.160Z,1005.29
2018-10-17T01:38:42.195Z,1005.29
2018-10-17T01:39:42.187Z,1005.29
2018-10-17T01:40:42.224Z,1005.25
2018-10-17T01:41:42.239Z,1005.25
2018-10-17T01:42:42.248Z,1005.20
2018-10-17T01:43:42.267Z,1005.26
2018-10-17T01:44:42.280Z,1005.22
2018-10-17T01:45:42.302Z,1005.22
2018-10-17T01:46:42.319Z,1005.19
2018-10-17T01:47:42.332Z,1005.22
2018-10-17T01:48:42.348Z,1005.18
2018-10-17T01:49:42.374Z,1005.17
2018-10-17T01:50:42.388Z,1005.16
2018-10-17T01:51:42.401Z,1005.14
2018-10-17T01:52:42.429Z,1005.11
2018-10-17T01:53:42.448Z,1005.06
2018-10-17T01:54:42.451Z,1005.08
2018-10-17T01:55:42.471Z,1005.06
2018-10-17T01:56:42.491Z,1005.04
2018-10-17T01:57:42.512Z,1005.04
2018-10-17T01:58:42.540Z,1005.03
2018-10-17T01:59:42.564Z,1005.05
2018-10-17T02:00:42.561Z,1005.02
2018-10-17T02:01:42.588Z,1004.94
2018-10-17T02:02:42.604Z,1005.01
2018-10-17T02:03:42.643Z,1004.97
2018-10-17T02:04:42.643Z,1004.98
2018-10-17T02:05:42.671Z,1004.97
2018-10-17T02:06:42.687Z,1004.98
2018-10-17T02:07:42.688Z,1004.99
2018-10-17T02:08:42.708Z,1004.99
2018-10-17T02:09:42.717Z,1005.00
2018-10-17T02:10:42.732Z,1005.01
2018-10-17T02:11:42.759Z,1004.96
2018-10-17T02:12:42.774Z,1004.99
2018-10-17T02:13:42.786Z,1004.98
2018-10-17T02:14:42.814Z,1004.97
2018-10-17T02:15:42.824Z,1004.94
2018-10-17T02:16:42.881Z,1004.98
2018-10-17T02:17:42.875Z,1004.95
2018-10-17T02:18:42.876Z,1004.97
2018-10-17T02:19:42.903Z,1004.94
2018-10-17T02:20:42.906Z,1004.95
2018-10-17T02:21:42.930Z,1004.97
2018-10-17T02:22:42.957Z,1004.97
2018-10-17T02:23:42.960Z,1004.95
2018-10-17T02:24:42.982Z,1004.98
2018-10-17T02:25:43.022Z,1005.00
2018-10-17T02:26:43.011Z,1004.99
2018-10-17T02:27:43.036Z,1004.99
2018-10-17T02:28:43.065Z,1005.02
2018-10-17T02:29:43.118Z,1005.01
2018-10-17T02:30:43.088Z,1004.99
2018-10-17T02:31:43.099Z,1004.98
2018-10-17T02:32:43.122Z,1004.99
2018-10-17T02:33:43.139Z,1005.00
2018-10-17T02:34:43.154Z,1004.98
2018-10-17T02:35:43.178Z,1004.98
2018-10-17T02:36:43.192Z,1004.96
2018-10-17T02:37:43.224Z,1004.95
2018-10-17T02:38:43.223Z,1004.96
2018-10-17T02:39:43.274Z,1004.95
2018-10-17T02:40:43.263Z,1004.98
2018-10-17T02:41:43.278Z,1004.96
2018-10-17T02:42:43.298Z,1004.98
2018-10-17T02:43:43.329Z,1004.99
2018-10-17T02:44:43.330Z,1005.01
2018-10-17T02:45:43.347Z,1004.99
2018-10-17T02:46:43.362Z,1005.05
2018-10-17T02:47:43.392Z,1005.04
2018-10-17T02:48:43.405Z,1005.01
2018-10-17T02:49:43.416Z,1005.03
2018-10-17T02:50:43.441Z,1005.03
2018-10-17T02:51:43.455Z,1005.04
2018-10-17T02:52:43.477Z,1005.02
2018-10-17T02:53:43.486Z,1004.99
2018-10-17T02:54:43.509Z,1005.00
2018-10-17T02:55:43.536Z,1004.97
2018-10-17T02:56:43.545Z,1004.95
2018-10-17T02:57:43.561Z,1004.98
2018-10-17T02:58:43.588Z,1005.00
2018-10-17T02:59:43.589Z,1004.99
2018-10-17T03:00:43.615Z,1005.00
2018-10-17T03:01:43.627Z,1004.98
2018-10-17T03:02:43.645Z,1004.98
2018-10-17T03:03:43.659Z,1004.96
2018-10-17T03:04:43.685Z,1004.99
2018-10-17T03:05:43.699Z,1004.98
2018-10-17T03:06:43.717Z,1004.97
2018-10-17T03:07:43.736Z,1004.97
2018-10-17T03:08:43.750Z,1004.98
2018-10-17T03:09:43.766Z,1005.06
2018-10-17T03:10:43.795Z,1005.04
2018-10-17T03:11:43.810Z,1005.09
2018-10-17T03:12:43.843Z,1005.05
2018-10-17T03:13:43.835Z,1005.09
2018-10-17T03:14:43.859Z,1005.08
2018-10-17T03:15:43.878Z,1005.07
2018-10-17T03:16:43.927Z,1005.05
2018-10-17T03:17:43.912Z,1005.04
2018-10-17T03:18:43.931Z,1005.05
2018-10-17T03:19:43.967Z,1005.05
2018-10-17T03:20:43.965Z,1005.03
2018-10-17T03:21:43.977Z,1005.00
2018-10-17T03:22:43.998Z,1005.01
2018-10-17T03:23:44.011Z,1005.03
2018-10-17T03:24:44.032Z,1005.05
2018-10-17T03:25:44.048Z,1005.05
2018-10-17T03:26:44.074Z,1005.05
2018-10-17T03:27:44.114Z,1005.05
2018-10-17T03:28:44.099Z,1005.08
2018-10-17T03:29:44.119Z,1005.07
2018-10-17T03:30:44.136Z,1005.07
2018-10-17T03:31:44.163Z,1005.10
2018-10-17T03:32:44.184Z,1005.10
2018-10-17T03:33:44.190Z,1005.12
2018-10-17T03:34:44.212Z,1005.12
2018-10-17T03:35:44.250Z,1005.10
2018-10-17T03:36:44.244Z,1005.10
2018-10-17T03:37:44.266Z,1005.13
2018-10-17T03:38:44.299Z,1005.18
2018-10-17T03:39:44.288Z,1005.19
2018-10-17T03:40:44.321Z,1005.16
2018-10-17T03:41:44.327Z,1005.21
2018-10-17T03:42:44.344Z,1005.21
2018-10-17T03:43:44.366Z,1005.20
2018-10-17T03:44:44.390Z,1005.24
2018-10-17T03:45:44.398Z,1005.19
2018-10-17T03:46:44.416Z,1005.20
2018-10-17T03:47:44.432Z,1005.23
2018-10-17T03:48:44.474Z,1005.24
2018-10-17T03:49:44.514Z,1005.21
2018-10-17T03:50:44.498Z,1005.17
2018-10-17T03:51:44.508Z,1005.20
2018-10-17T03:52:44.533Z,1005.18
2018-10-17T03:53:44.541Z,1005.19
2018-10-17T03:54:44.555Z,1005.22
2018-10-17T03:55:44.584Z,1005.23
2018-10-17T03:56:44.593Z,1005.23
2018-10-17T03:57:44.612Z,1005.24
2018-10-17T03:58:44.624Z,1005.21
2018-10-17T03:59:44.653Z,1005.22
2018-10-17T04:00:44.659Z,1005.24
2018-10-17T04:01:44.709Z,1005.24
2018-10-17T04:02:44.689Z,1005.26
2018-10-17T04:03:44.704Z,1005.23
2018-10-17T04:04:44.735Z,1005.22
2018-10-17T04:05:44.754Z,1005.22
2018-10-17T04:06:44.779Z,1005.25
2018-10-17T04:07:44.779Z,1005.23
2018-10-17T04:08:44.796Z,1005.26
2018-10-17T04:09:44.813Z,1005.27
2018-10-17T04:10:44.828Z,1005.25
2018-10-17T04:11:44.854Z,1005.26
2018-10-17T04:12:44.885Z,1005.26
2018-10-17T04:13:44.898Z,1005.25
2018-10-17T04:14:44.922Z,1005.25
2018-10-17T04:15:44.914Z,1005.26
2018-10-17T04:16:44.943Z,1005.25
2018-10-17T04:17:44.963Z,1005.23
2018-10-17T04:18:44.976Z,1005.19
2018-10-17T04:19:44.987Z,1005.22
2018-10-17T04:20:45.042Z,1005.24
2018-10-17T04:21:45.035Z,1005.22
2018-10-17T04:22:45.078Z,1005.21
2018-10-17T04:23:45.073Z,1005.22
2018-10-17T04:24:45.109Z,1005.23
2018-10-17T04:25:45.092Z,1005.21
2018-10-17T04:26:45.107Z,1005.20
2018-10-17T04:27:45.137Z,1005.20
2018-10-17T04:28:45.151Z,1005.16
2018-10-17T04:29:45.161Z,1005.18
2018-10-17T04:30:45.180Z,1005.16
2018-10-17T04:31:45.199Z,1005.17
2018-10-17T04:32:45.215Z,1005.13
2018-10-17T04:33:45.230Z,1005.13
2018-10-17T04:34:45.263Z,1005.15
2018-10-17T04:35:45.268Z,1005.13
2018-10-17T04:36:45.276Z,1005.13
2018-10-17T04:37:45.311Z,1005.15
2018-10-17T04:38:45.347Z,1005.19
2018-10-17T04:39:45.332Z,1005.18
2018-10-17T04:40:45.353Z,1005.20
2018-10-17T04:41:45.371Z,1005.18
2018-10-17T04:42:45.387Z,1005.22
2018-10-17T04:43:45.421Z,1005.24
2018-10-17T04:44:45.432Z,1005.18
2018-10-17T04:45:45.434Z,1005.20
2018-10-17T04:46:45.470Z,1005.21
2018-10-17T04:47:45.543Z,1005.18
2018-10-17T04:48:45.487Z,1005.18
2018-10-17T04:49:45.512Z,1005.19
2018-10-17T04:50:45.527Z,1005.20
2018-10-17T04:51:45.545Z,1005.18
2018-10-17T04:52:45.555Z,1005.19
2018-10-17T04:53:45.564Z,1005.22
2018-10-17T04:54:45.593Z,1005.19
2018-10-17T04:55:45.625Z,1005.18
2018-10-17T04:56:45.640Z,1005.20
2018-10-17T04:57:45.646Z,1005.20
2018-10-17T04:58:45.657Z,1005.14
2018-10-17T04:59:45.679Z,1005.16
2018-10-17T05:00:45.697Z,1005.17
2018-10-17T05:01:45.714Z,1005.18
2018-10-17T05:02:45.734Z,1005.15
2018-10-17T05:03:45.746Z,1005.13
2018-10-17T05:04:45.844Z,1005.18
2018-10-17T05:05:45.784Z,1005.18
2018-10-17T05:06:45.811Z,1005.15
2018-10-17T05:07:45.814Z,1005.20
2018-10-17T05:08:45.837Z,1005.17
2018-10-17T05:09:45.852Z,1005.19
2018-10-17T05:10:45.869Z,1005.23
2018-10-17T05:11:45.896Z,1005.22
2018-10-17T05:12:45.921Z,1005.18
2018-10-17T05:13:45.914Z,1005.21
2018-10-17T05:14:45.931Z,1005.21
2018-10-17T05:15:45.976Z,1005.24
2018-10-17T05:16:45.975Z,1005.26
2018-10-17T05:17:45.988Z,1005.25
2018-10-17T05:18:46.009Z,1005.21
2018-10-17T05:19:46.022Z,1005.25
2018-10-17T05:20:46.053Z,1005.26
2018-10-17T05:21:46.051Z,1005.25
2018-10-17T05:22:46.079Z,1005.26
2018-10-17T05:23:46.114Z,1005.25
2018-10-17T05:24:46.113Z,1005.25
2018-10-17T05:25:46.134Z,1005.27
2018-10-17T05:26:46.145Z,1005.20
2018-10-17T05:27:46.161Z,1005.22
2018-10-17T05:28:46.187Z,1005.25
2018-10-17T05:29:46.289Z,1005.26
2018-10-17T05:30:46.217Z,1005.25
2018-10-17T05:31:46.226Z,1005.25
2018-10-17T05:32:46.251Z,1005.25
2018-10-17T05:33:46.265Z,1005.24
2018-10-17T05:34:46.278Z,1005.23
2018-10-17T05:35:46.311Z,1005.24
2018-10-17T05:36:46.318Z,1005.23
2018-10-17T05:37:46.421Z,1005.26
2018-10-17T05:38:46.353Z,1005.26
2018-10-17T05:39:46.367Z,1005.28
2018-10-17T05:40:46.393Z,1005.31
2018-10-17T05:41:46.399Z,1005.30
2018-10-17T05:42:46.418Z,1005.27
2018-10-17T05:43:46.445Z,1005.29
2018-10-17T05:44:46.453Z,1005.29
2018-10-17T05:45:46.478Z,1005.29
2018-10-17T05:46:46.564Z,1005.26
2018-10-17T05:47:46.510Z,1005.28
2018-10-17T05:48:46.525Z,1005.31
2018-10-17T05:49:46.535Z,1005.29
2018-10-17T05:50:46.556Z,1005.29
2018-10-17T05:51:46.565Z,1005.29
2018-10-17T05:52:46.588Z,1005.30
2018-10-17T05:53:46.604Z,1005.29
2018-10-17T05:54:46.623Z,1005.28
2018-10-17T05:55:46.642Z,1005.29
2018-10-17T05:56:46.654Z,1005.26
2018-10-17T05:57:46.674Z,1005.27
2018-10-17T05:58:46.694Z,1005.26
2018-10-17T05:59:46.710Z,1005.25
2018-10-17T06:00:46.730Z,1005.26
2018-10-17T06:01:46.814Z,1005.27
2018-10-17T06:02:46.770Z,1005.29
2018-10-17T06:03:46.797Z,1005.28
2018-10-17T06:04:46.809Z,1005.24
2018-10-17T06:05:46.829Z,1005.28
2018-10-17T06:06:46.840Z,1005.26
2018-10-17T06:07:46.843Z,1005.27
2018-10-17T06:08:46.867Z,1005.29
2018-10-17T06:09:46.884Z,1005.26
2018-10-17T06:10:46.900Z,1005.29
2018-10-17T06:11:46.907Z,1005.29
2018-10-17T06:12:46.935Z,1005.28
2018-10-17T06:13:46.950Z,1005.28
2018-10-17T06:14:46.969Z,1005.29
2018-10-17T06:15:46.981Z,1005.29
2018-10-17T06:16:47.067Z,1005.30
2018-10-17T06:17:47.020Z,1005.28
2018-10-17T06:18:47.040Z,1005.27
2018-10-17T06:19:47.053Z,1005.25
2018-10-17T06:20:47.065Z,1005.26
2018-10-17T06:21:47.079Z,1005.26
2018-10-17T06:22:47.106Z,1005.25
2018-10-17T06:23:47.123Z,1005.24
2018-10-17T06:24:47.141Z,1005.23
2018-10-17T06:25:47.185Z,1005.24
2018-10-17T06:26:47.178Z,1005.24
2018-10-17T06:27:47.191Z,1005.23
2018-10-17T06:28:47.207Z,1005.22
2018-10-17T06:29:47.223Z,1005.24
2018-10-17T06:30:47.399Z,1005.23
2018-10-17T06:31:47.263Z,1005.21
2018-10-17T06:32:47.277Z,1005.25
2018-10-17T06:33:47.357Z,1005.25
2018-10-17T06:34:47.388Z,1005.28
2018-10-17T06:35:47.332Z,1005.31
2018-10-17T06:36:47.344Z,1005.33
2018-10-17T06:37:47.369Z,1005.35
2018-10-17T06:38:47.375Z,1005.35
2018-10-17T06:39:47.395Z,1005.38
2018-10-17T06:40:47.415Z,1005.43
2018-10-17T06:41:47.428Z,1005.41
2018-10-17T06:42:47.445Z,1005.44
2018-10-17T06:43:47.623Z,1005.47
2018-10-17T06:44:47.482Z,1005.51
2018-10-17T06:45:47.506Z,1005.48
2018-10-17T06:46:47.519Z,1005.53
2018-10-17T06:47:47.536Z,1005.55
2018-10-17T06:48:47.551Z,1005.57
2018-10-17T06:49:47.578Z,1005.53
2018-10-17T06:50:47.591Z,1005.56
2018-10-17T06:51:47.610Z,1005.57
2018-10-17T06:52:47.620Z,1005.60
2018-10-17T06:53:47.718Z,1005.64
2018-10-17T06:54:47.652Z,1005.64
2018-10-17T06:55:47.675Z,1005.64
2018-10-17T06:56:47.710Z,1005.67
2018-10-17T06:57:47.712Z,1005.70
2018-10-17T06:58:47.735Z,1005.69
2018-10-17T06:59:47.753Z,1005.73
2018-10-17T07:00:47.768Z,1005.80
2018-10-17T07:01:47.865Z,1005.77
2018-10-17T07:02:47.799Z,1005.75
2018-10-17T07:03:47.819Z,1005.74
2018-10-17T07:04:47.847Z,1005.72
2018-10-17T07:05:47.864Z,1005.65
2018-10-17T07:06:47.868Z,1005.59
2018-10-17T07:07:47.929Z,1005.57
2018-10-17T07:08:47.932Z,1005.56
2018-10-17T07:09:47.934Z,1005.56
2018-10-17T07:10:47.950Z,1005.63
2018-10-17T07:11:47.958Z,1005.61
2018-10-17T07:12:47.982Z,1005.58
2018-10-17T07:13:47.993Z,1005.54
2018-10-17T07:14:48.031Z,1005.54
2018-10-17T07:15:48.097Z,1005.53
2018-10-17T07:16:48.049Z,1005.51
2018-10-17T07:17:48.082Z,1005.53
2018-10-17T07:18:48.086Z,1005.53
2018-10-17T07:19:48.107Z,1005.55
2018-10-17T07:20:48.127Z,1005.54
2018-10-17T07:21:48.159Z,1005.69
2018-10-17T07:22:48.163Z,1005.70
2018-10-17T07:23:48.184Z,1005.74
2018-10-17T07:24:48.196Z,1005.78
2018-10-17T07:25:48.222Z,1005.78
2018-10-17T07:26:48.239Z,1005.87
2018-10-17T07:27:48.262Z,1005.99
2018-10-17T07:28:48.357Z,1006.21
2018-10-17T07:29:48.401Z,1006.32
2018-10-17T07:30:48.304Z,1006.33
2018-10-17T07:31:48.332Z,1006.37
2018-10-17T07:32:48.342Z,1006.24
2018-10-17T07:33:48.373Z,1006.19
2018-10-17T07:34:48.373Z,1006.17
2018-10-17T07:35:48.431Z,1006.15
2018-10-17T07:36:48.426Z,1006.17
2018-10-17T07:37:48.437Z,1006.17
2018-10-17T07:38:48.456Z,1006.11
2018-10-17T07:39:48.516Z,1006.11
2018-10-17T07:40:48.493Z,1006.16
2018-10-17T07:41:48.517Z,1006.21
2018-10-17T07:42:48.526Z,1006.24
2018-10-17T07:43:48.552Z,1006.29
2018-10-17T07:44:48.601Z,1006.17
2018-10-17T07:45:48.656Z,1006.29
2018-10-17T07:46:48.612Z,1006.22
2018-10-17T07:47:48.652Z,1006.17
2018-10-17T07:48:48.644Z,1006.12
2018-10-17T07:49:48.654Z,1006.14
2018-10-17T07:50:48.679Z,1006.17
2018-10-17T07:51:48.698Z,1006.09
2018-10-17T07:52:48.714Z,1006.03
2018-10-17T07:53:48.733Z,1006.02
2018-10-17T07:54:48.774Z,1006.04
2018-10-17T07:55:48.775Z,1006.15
2018-10-17T07:56:48.791Z,1006.24
2018-10-17T07:57:48.811Z,1006.29
2018-10-17T07:58:48.831Z,1006.30
2018-10-17T07:59:48.917Z,1006.29
2018-10-17T08:00:48.882Z,1006.18
2018-10-17T08:01:48.888Z,1006.05
2018-10-17T08:02:48.920Z,1006.09
2018-10-17T08:03:48.922Z,1005.95
2018-10-17T08:04:48.997Z,1005.94
2018-10-17T08:05:48.955Z,1005.92
2018-10-17T08:06:49.044Z,1006.22
2018-10-17T08:07:49.030Z,1006.00
2018-10-17T08:08:49.032Z,1006.03
2018-10-17T08:09:49.036Z,1005.87
2018-10-17T08:10:49.058Z,1005.90
2018-10-17T08:11:49.067Z,1005.97
2018-10-17T08:12:49.091Z,1006.11
2018-10-17T08:13:49.151Z,1006.22
2018-10-17T08:14:49.125Z,1006.13
2018-10-17T08:15:49.160Z,1006.17
2018-10-17T08:16:49.162Z,1006.21
2018-10-17T08:17:49.185Z,1006.16
2018-10-17T08:18:49.206Z,1006.22
2018-10-17T08:19:49.246Z,1006.19
2018-10-17T08:20:49.244Z,1006.12
2018-10-17T08:21:49.261Z,1006.20
2018-10-17T08:22:49.286Z,1006.09
2018-10-17T08:23:49.332Z,1006.01
2018-10-17T08:24:49.321Z,1006.20
2018-10-17T08:25:49.335Z,1006.13
2018-10-17T08:26:49.353Z,1006.01
2018-10-17T08:27:49.372Z,1006.06
2018-10-17T08:28:49.398Z,1005.99
2018-10-17T08:29:49.411Z,1005.94
2018-10-17T08:30:49.435Z,1005.84
2018-10-17T08:31:49.449Z,1005.80
2018-10-17T08:32:49.472Z,1005.93
2018-10-17T08:33:49.499Z,1006.00
2018-10-17T08:34:49.516Z,1006.10
2018-10-17T08:35:49.606Z,1006.11
2018-10-17T08:36:49.815Z,1006.05
2018-10-17T08:37:50.071Z,1006.00
2018-10-17T08:38:49.586Z,1005.94
2018-10-17T08:39:49.601Z,1005.94
2018-10-17T08:40:49.662Z,1005.86
2018-10-17T08:41:49.635Z,1005.87
2018-10-17T08:42:49.668Z,1005.93
2018-10-17T08:43:49.711Z,1005.96
2018-10-17T08:44:49.705Z,1005.99
2018-10-17T08:45:49.712Z,1005.87
2018-10-17T08:46:49.749Z,1005.99
2018-10-17T08:47:49.756Z,1006.17
2018-10-17T08:48:49.793Z,1006.06
2018-10-17T08:49:49.796Z,1005.89
2018-10-17T08:50:49.894Z,1006.07
2018-10-17T08:51:49.829Z,1006.07
2018-10-17T08:52:49.858Z,1006.03
2018-10-17T08:53:49.894Z,1006.12
2018-10-17T08:54:49.888Z,1006.01
2018-10-17T08:55:49.908Z,1005.98
2018-10-17T08:56:49.997Z,1005.92
2018-10-17T08:57:49.991Z,1005.90
2018-10-17T08:58:49.970Z,1005.86
2018-10-17T08:59:49.982Z,1005.88
2018-10-17T09:00:50.007Z,1005.92
2018-10-17T09:01:50.019Z,1005.87
2018-10-17T09:02:50.038Z,1005.83
2018-10-17T09:03:50.071Z,1005.83
2018-10-17T09:04:50.085Z,1005.84
2018-10-17T09:05:50.098Z,1005.86
2018-10-17T09:06:50.139Z,1005.92
2018-10-17T09:07:50.242Z,1005.90
2018-10-17T09:08:50.169Z,1005.90
2018-10-17T09:09:50.179Z,1005.88
2018-10-17T09:10:50.194Z,1005.86
2018-10-17T09:11:50.212Z,1005.88
2018-10-17T09:12:50.233Z,1005.87
2018-10-17T09:13:50.271Z,1005.87
2018-10-17T09:14:50.275Z,1005.85
2018-10-17T09:15:50.296Z,1005.88
2018-10-17T09:16:50.419Z,1005.85
2018-10-17T09:17:50.325Z,1005.87
2018-10-17T09:18:50.370Z,1005.89
2018-10-17T09:19:50.505Z,1005.89
2018-10-17T09:20:50.700Z,1005.86
2018-10-17T09:21:50.801Z,1005.85
2018-10-17T09:22:50.422Z,1005.85
2018-10-17T09:23:50.446Z,1005.86
2018-10-17T09:24:50.463Z,1005.86
2018-10-17T09:25:50.493Z,1005.92
2018-10-17T09:26:50.502Z,1005.90
2018-10-17T09:27:50.524Z,1005.89
2018-10-17T09:28:50.546Z,1005.89
2018-10-17T09:29:50.589Z,1005.87
2018-10-17T09:30:50.583Z,1005.89
2018-10-17T09:31:50.601Z,1005.94
2018-10-17T09:32:50.616Z,1005.93
2018-10-17T09:33:50.669Z,1005.92
2018-10-17T09:34:50.657Z,1005.96
2018-10-17T09:35:50.681Z,1005.97
2018-10-17T09:36:50.706Z,1005.97
2018-10-17T09:37:50.720Z,1006.00
2018-10-17T09:38:50.743Z,1005.99
2018-10-17T09:39:50.754Z,1005.95
2018-10-17T09:40:50.779Z,1005.96
2018-10-17T09:41:50.788Z,1005.95
2018-10-17T09:42:50.819Z,1005.94
2018-10-17T09:43:50.832Z,1005.93
2018-10-17T09:44:50.845Z,1005.88
2018-10-17T09:45:50.886Z,1005.91
2018-10-17T09:46:50.898Z,1005.91
2018-10-17T09:47:50.906Z,1005.87
2018-10-17T09:48:50.931Z,1005.87
2018-10-17T09:49:50.953Z,1005.84
2018-10-17T09:50:50.975Z,1005.84
2018-10-17T09:51:50.991Z,1005.84
2018-10-17T09:52:51.015Z,1005.84
2018-10-17T09:53:51.053Z,1005.86
2018-10-17T09:54:51.041Z,1005.87
2018-10-17T09:55:51.060Z,1005.88
2018-10-17T09:56:51.096Z,1005.84
2018-10-17T09:57:51.122Z,1005.84
2018-10-17T09:58:51.119Z,1005.81
2018-10-17T09:59:51.160Z,1005.84
2018-10-17T10:00:51.161Z,1005.83
2018-10-17T10:01:51.176Z,1005.83
2018-10-17T10:02:51.198Z,1005.82
2018-10-17T10:03:51.224Z,1005.83
2018-10-17T10:04:51.241Z,1005.82
2018-10-17T10:05:51.298Z,1005.81
2018-10-17T10:06:51.277Z,1005.79
2018-10-17T10:07:51.331Z,1005.78
2018-10-17T10:08:51.326Z,1005.75
2018-10-17T10:09:51.351Z,1005.70
2018-10-17T10:10:51.428Z,1005.73
2018-10-17T10:11:51.421Z,1005.65
2018-10-17T10:12:51.395Z,1005.71
2018-10-17T10:13:51.422Z,1005.66
2018-10-17T10:14:51.437Z,1005.66
2018-10-17T10:15:51.495Z,1005.64
2018-10-17T10:16:51.495Z,1005.63
2018-10-17T10:17:51.496Z,1005.61
2018-10-17T10:18:51.525Z,1005.61
2018-10-17T10:19:51.568Z,1005.58
2018-10-17T10:20:51.555Z,1005.57
2018-10-17T10:21:51.655Z,1005.58
2018-10-17T10:22:51.647Z,1005.55
2018-10-17T10:23:51.785Z,1005.55
2018-10-17T10:24:51.723Z,1005.53
2018-10-17T10:25:51.669Z,1005.55
2018-10-17T10:26:51.677Z,1005.57
2018-10-17T10:27:51.715Z,1005.56
2018-10-17T10:28:51.721Z,1005.52
2018-10-17T10:29:51.759Z,1005.52
2018-10-17T10:30:51.758Z,1005.51
2018-10-17T10:31:51.785Z,1005.51
2018-10-17T10:32:51.794Z,1005.50
2018-10-17T10:33:51.810Z,1005.53
2018-10-17T10:34:51.831Z,1005.51
2018-10-17T10:35:51.876Z,1005.50
2018-10-17T10:36:51.874Z,1005.50
2018-10-17T10:37:51.889Z,1005.49
2018-10-17T10:38:51.916Z,1005.45
2018-10-17T10:39:51.946Z,1005.44
2018-10-17T10:40:51.952Z,1005.44
2018-10-17T10:41:52.034Z,1005.40
2018-10-17T10:42:51.991Z,1005.41
2018-10-17T10:43:52.015Z,1005.40
2018-10-17T10:44:52.114Z,1005.37
2018-10-17T10:45:52.070Z,1005.40
2018-10-17T10:46:52.077Z,1005.34
2018-10-17T10:47:52.094Z,1005.34
2018-10-17T10:48:52.164Z,1005.33
2018-10-17T10:49:52.183Z,1005.25
2018-10-17T10:50:52.161Z,1005.28
2018-10-17T10:51:52.180Z,1005.30
2018-10-17T10:52:52.248Z,1005.25
2018-10-17T10:53:52.243Z,1005.28
2018-10-17T10:54:52.236Z,1005.28
2018-10-17T10:55:52.293Z,1005.30
2018-10-17T10:56:52.325Z,1005.29
2018-10-17T10:57:52.352Z,1005.27
2018-10-17T10:58:52.541Z,1005.22
2018-10-17T10:59:52.392Z,1005.27
2018-10-17T11:00:52.357Z,1005.27
2018-10-17T11:01:52.401Z,1005.23
2018-10-17T11:02:52.409Z,1005.21
2018-10-17T11:03:52.421Z,1005.17
2018-10-17T11:04:52.507Z,1005.15
2018-10-17T11:05:52.458Z,1005.17
2018-10-17T11:06:52.483Z,1005.11
2018-10-17T11:07:52.506Z,1005.08
2018-10-17T11:08:52.517Z,1005.05
2018-10-17T11:09:52.539Z,1005.05
2018-10-17T11:10:52.581Z,1005.02
2018-10-17T11:11:52.599Z,1005.03
2018-10-17T11:12:52.610Z,1004.99
2018-10-17T11:13:52.628Z,1004.96
2018-10-17T11:14:52.885Z,1004.95
2018-10-17T11:15:52.661Z,1004.91
2018-10-17T11:16:52.755Z,1004.88
2018-10-17T11:17:52.705Z,1004.91
2018-10-17T11:18:52.731Z,1004.83
2018-10-17T11:19:52.763Z,1004.88
2018-10-17T11:20:52.773Z,1004.85
2018-10-17T11:21:52.824Z,1004.82
2018-10-17T11:22:52.860Z,1004.84
2018-10-17T11:23:52.849Z,1004.81
2018-10-17T11:24:52.859Z,1004.79
2018-10-17T11:25:52.889Z,1004.79
2018-10-17T11:26:52.961Z,1004.81
2018-10-17T11:27:52.913Z,1004.79
2018-10-17T11:28:52.936Z,1004.76
2018-10-17T11:29:52.954Z,1004.76
2018-10-17T11:30:52.980Z,1004.76
2018-10-17T11:31:53.101Z,1004.77
2018-10-17T11:32:53.030Z,1004.76
2018-10-17T11:33:53.065Z,1004.74
2018-10-17T11:34:53.107Z,1004.80
2018-10-17T11:35:53.083Z,1004.72
2018-10-17T11:36:53.104Z,1004.74
2018-10-17T11:37:53.180Z,1004.75
2018-10-17T11:38:53.217Z,1004.75
2018-10-17T11:39:53.194Z,1004.74
2018-10-17T11:40:53.334Z,1004.72
2018-10-17T11:41:53.211Z,1004.72
2018-10-17T11:42:53.223Z,1004.70
2018-10-17T11:43:53.257Z,1004.68
2018-10-17T11:44:53.311Z,1004.67
2018-10-17T11:45:53.292Z,1004.67
2018-10-17T11:46:53.332Z,1004.65
2018-10-17T11:47:53.403Z,1004.65
2018-10-17T11:48:53.354Z,1004.61
2018-10-17T11:49:53.377Z,1004.65
2018-10-17T11:50:53.401Z,1004.63
2018-10-17T11:51:53.416Z,1004.61
2018-10-17T11:52:53.464Z,1004.67
2018-10-17T11:53:53.465Z,1004.63
2018-10-17T11:54:53.488Z,1004.59
2018-10-17T11:55:53.527Z,1004.66
2018-10-17T11:56:53.530Z,1004.64
2018-10-17T11:57:53.544Z,1004.60
2018-10-17T11:58:53.617Z,1004.59
2018-10-17T11:59:53.602Z,1004.60
2018-10-17T12:00:53.608Z,1004.58
2018-10-17T12:01:53.634Z,1004.57
2018-10-17T12:02:53.648Z,1004.54
2018-10-17T12:03:53.849Z,1004.53
2018-10-17T12:04:53.930Z,1004.55
2018-10-17T12:05:53.793Z,1004.54